Time;durP1;ratioP1;P1;durP2;ratioP2;P2;SDS_P1;SDS_P2;PMS_P1;PMS_P2;Temp;Humidity;BMP_temperature;BMP_pressure;BME280_temperature;BME280_humidity;BME280_pressure;Samples;Min_cycle;Max_cycle;Signal;HPM_P1;HPM_P2
2022/01/17 00:00:28;;;;;;;7.67;7.17;;;16.30;64.10;;;;;;5087582;27;43473;-71
2022/01/17 00:02:56;;;;;;;7.37;6.97;;;16.20;64.30;;;;;;5087545;28;43969;-72
2022/01/17 00:05:24;;;;;;;7.37;6.97;;;16.20;64.40;;;;;;5087977;27;44225;-71
2022/01/17 00:07:52;;;;;;;7.53;7.07;;;16.10;64.60;;;;;;5087658;28;44113;-70
2022/01/17 00:10:20;;;;;;;7.57;7.13;;;16.10;64.80;;;;;;5088026;27;43393;-71
2022/01/17 00:12:51;;;;;;;7.80;7.30;;;16.00;64.90;;;;;;5086571;28;43971;-71
2022/01/17 00:15:23;;;;;;;7.40;6.90;;;16.00;65.10;;;;;;5088357;27;43963;-71
2022/01/17 00:18:07;;;;;;;8.00;7.47;;;15.90;65.10;;;;;;5087696;28;44973;-70
2022/01/17 00:20:35;;;;;;;7.50;7.00;;;16.00;65.40;;;;;;5087688;28;43917;-71
2022/01/17 00:23:03;;;;;;;7.33;6.93;;;16.10;64.90;;;;;;5087343;28;43866;-71
2022/01/17 00:25:31;;;;;;;7.23;6.83;;;16.10;64.50;;;;;;5087622;28;43980;-72
2022/01/17 00:27:59;;;;;;;6.83;6.50;;;16.10;64.50;;;;;;5087188;28;44037;-71
2022/01/17 00:30:28;;;;;;;7.13;6.73;;;16.10;64.60;;;;;;5085242;28;45020;-70
2022/01/17 00:32:58;;;;;;;7.47;7.07;;;16.10;64.80;;;;;;5087165;28;43935;-71
2022/01/17 00:35:26;;;;;;;7.53;7.10;;;16.10;65.00;;;;;;5087535;28;43958;-71
2022/01/17 00:37:54;;;;;;;7.90;7.43;;;16.10;65.10;;;;;;5086951;28;43927;-71
2022/01/17 00:40:22;;;;;;;7.93;7.43;;;16.10;65.10;;;;;;5087236;28;43983;-70
2022/01/17 00:42:50;;;;;;;7.33;6.93;;;16.00;65.10;;;;;;5085966;28;43388;-70
2022/01/17 00:45:24;;;;;;;7.20;6.67;;;16.00;65.10;;;;;;5087884;28;43939;-70
2022/01/17 00:47:55;;;;;;;7.77;7.27;;;16.00;65.10;;;;;;5087445;27;44034;-70
2022/01/17 00:50:24;;;;;;;7.03;6.63;;;16.00;65.80;;;;;;5087048;28;43928;-71
2022/01/17 00:52:52;;;;;;;7.77;7.27;;;16.00;65.10;;;;;;5087148;28;43928;-71
2022/01/17 00:55:20;;;;;;;7.00;6.60;;;16.00;65.10;;;;;;5087521;28;43441;-71
2022/01/17 00:57:48;;;;;;;6.93;6.53;;;16.00;65.00;;;;;;5087120;27;43958;-71
2022/01/17 01:00:16;;;;;;;7.07;6.67;;;16.00;65.20;;;;;;5086676;28;44028;-71
2022/01/17 01:02:45;;;;;;;6.90;6.50;;;16.10;65.10;;;;;;5085332;28;43372;-71
2022/01/17 01:05:13;;;;;;;7.23;6.73;;;16.30;64.80;;;;;;5087461;27;43640;-71
2022/01/17 01:07:43;;;;;;;7.00;6.60;;;16.40;64.30;;;;;;5086765;27;43587;-71
2022/01/17 01:10:11;;;;;;;6.90;6.50;;;16.40;63.80;;;;;;5086777;28;43895;-71
2022/01/17 01:12:39;;;;;;;6.67;6.37;;;16.50;63.70;;;;;;5086107;27;43991;-70
2022/01/17 01:15:11;;;;;;;6.80;6.40;;;16.40;63.60;;;;;;5085755;28;44074;-70
2022/01/17 01:17:50;;;;;;;6.90;6.50;;;16.40;63.80;;;;;;5085120;28;45859;-71
2022/01/17 01:20:27;;;;;;;7.00;6.60;;;16.30;64.10;;;;;;5086873;28;44131;-70
2022/01/17 01:28:32;;;;;;;6.90;6.50;;;16.10;64.60;;;;;;5086462;27;44698;-70
2022/01/17 01:31:03;;;;;;;7.23;6.83;;;16.00;64.80;;;;;;5085931;28;43479;-71
2022/01/17 01:33:35;;;;;;;7.70;7.20;;;16.00;65.00;;;;;;5086581;27;44004;-71
2022/01/17 01:36:07;;;;;;;6.40;6.10;;;15.90;65.00;;;;;;5086986;28;43353;-71
2022/01/17 01:38:39;;;;;;;7.60;7.10;;;15.90;65.10;;;;;;5086429;27;44911;-71
2022/01/17 01:41:07;;;;;;;7.53;7.03;;;15.90;65.30;;;;;;5086459;28;43995;-71
2022/01/17 01:43:35;;;;;;;7.20;6.70;;;16.00;65.20;;;;;;5084968;28;43983;-71
2022/01/17 01:46:05;;;;;;;7.33;6.90;;;16.10;64.70;;;;;;5087155;27;43544;-71
2022/01/17 01:48:34;;;;;;;6.97;6.57;;;16.10;64.50;;;;;;5086271;27;45084;-71
2022/01/17 01:51:02;;;;;;;7.43;6.93;;;16.10;64.60;;;;;;5086235;28;43414;-70
2022/01/17 01:53:30;;;;;;;7.30;6.80;;;16.10;64.70;;;;;;5086214;28;44043;-70
2022/01/17 01:55:59;;;;;;;7.90;7.40;;;16.10;64.70;;;;;;5085415;28;43500;-71
2022/01/17 01:58:27;;;;;;;7.73;7.23;;;16.10;64.70;;;;;;5085988;28;43952;-71
2022/01/17 02:00:55;;;;;;;7.67;7.17;;;16.10;64.90;;;;;;5086571;28;43796;-71
2022/01/17 02:03:24;;;;;;;7.37;6.97;;;16.10;64.90;;;;;;5084715;28;43893;-71
2022/01/17 02:05:52;;;;;;;7.77;7.27;;;16.00;64.80;;;;;;5085211;28;43866;-71
2022/01/17 02:08:20;;;;;;;7.67;7.17;;;16.00;65.00;;;;;;5086255;28;44890;-71
2022/01/17 02:10:48;;;;;;;7.33;6.90;;;16.00;65.00;;;;;;5084333;28;44690;-71
2022/01/17 02:13:18;;;;;;;8.00;7.40;;;16.00;64.90;;;;;;5085933;28;43470;-71
2022/01/17 02:15:47;;;;;;;6.90;6.50;;;16.00;65.00;;;;;;5086409;28;43390;-71
2022/01/17 02:18:21;;;;;;;7.33;6.83;;;16.00;65.10;;;;;;5084315;28;46915;-71
2022/01/17 02:21:11;;;;;;;7.53;7.00;;;16.00;65.10;;;;;;5084597;28;45689;-71
2022/01/17 02:23:39;;;;;;;7.07;6.57;;;16.00;65.30;;;;;;5084441;27;43332;-72
2022/01/17 02:26:07;;;;;;;7.63;7.10;;;16.10;65.00;;;;;;5088278;28;44022;-71
2022/01/17 02:28:36;;;;;;;7.97;7.37;;;16.20;64.40;;;;;;5089094;28;43955;-71
2022/01/17 02:31:05;;;;;;;7.20;6.70;;;16.30;64.10;;;;;;5088415;27;43891;-72
2022/01/17 02:33:33;;;;;;;7.67;7.17;;;16.40;63.80;;;;;;5082548;28;43978;-72
2022/01/17 02:36:02;;;;;;;7.63;7.13;;;16.40;63.50;;;;;;5083006;28;43907;-70
2022/01/17 02:38:30;;;;;;;6.83;6.43;;;16.40;63.80;;;;;;5081184;28;45305;-71
2022/01/17 02:40:58;;;;;;;8.30;7.77;;;16.30;63.90;;;;;;5082585;28;43973;-71
2022/01/17 02:43:27;;;;;;;7.60;7.07;;;16.20;64.00;;;;;;5082544;28;43895;-71
2022/01/17 02:48:38;;;;;;;7.97;7.40;;;16.10;64.50;;;;;;5086653;28;44182;-72
2022/01/17 02:51:08;;;;;;;7.37;6.97;;;16.00;64.70;;;;;;5088683;27;43938;-72
2022/01/17 02:53:36;;;;;;;6.90;6.50;;;16.00;64.80;;;;;;5088771;27;43875;-72
2022/01/17 02:56:06;;;;;;;8.00;7.50;;;15.90;64.90;;;;;;5089322;28;43460;-71
2022/01/17 02:58:34;;;;;;;7.60;7.10;;;15.90;65.00;;;;;;5088612;27;44834;-70
2022/01/17 03:01:04;;;;;;;7.50;7.00;;;15.90;65.10;;;;;;5087667;28;44974;-72
2022/01/17 03:03:32;;;;;;;7.23;6.77;;;15.90;65.30;;;;;;5088579;27;43465;-71
2022/01/17 03:06:00;;;;;;;6.80;6.40;;;15.90;65.30;;;;;;5089215;28;44153;-71
2022/01/17 03:08:30;;;;;;;7.73;7.23;;;16.00;64.80;;;;;;5087100;28;46077;-71
2022/01/17 03:11:00;;;;;;;7.07;6.67;;;16.10;64.50;;;;;;5088487;28;44019;-72
2022/01/17 03:13:32;;;;;;;7.43;6.93;;;16.10;64.50;;;;;;5088534;28;43940;-72
2022/01/17 03:16:00;;;;;;;7.00;6.60;;;16.10;64.60;;;;;;5089218;27;43998;-71
2022/01/17 03:18:30;;;;;;;7.60;7.10;;;16.10;64.70;;;;;;5088285;27;43889;-72
2022/01/17 03:20:58;;;;;;;7.80;7.30;;;16.10;64.80;;;;;;5088237;28;44047;-71
2022/01/17 03:23:26;;;;;;;7.43;6.93;;;16.10;64.80;;;;;;5088166;28;43963;-72
2022/01/17 03:25:56;;;;;;;7.40;6.90;;;16.00;64.90;;;;;;5087555;28;43980;-71
2022/01/17 03:28:25;;;;;;;7.20;6.70;;;16.00;64.90;;;;;;5088124;27;44064;-72
2022/01/17 03:30:53;;;;;;;8.10;7.47;;;16.00;65.60;;;;;;5087410;28;43759;-71
2022/01/17 03:33:21;;;;;;;7.10;6.63;;;16.00;65.00;;;;;;5088386;27;44002;-72
2022/01/17 03:35:49;;;;;;;7.60;7.10;;;16.00;65.00;;;;;;5088294;27;43978;-71
2022/01/17 03:38:18;;;;;;;7.10;6.70;;;16.00;65.10;;;;;;5087109;28;45399;-71
2022/01/17 03:40:47;;;;;;;6.93;6.53;;;16.00;65.10;;;;;;5088032;28;43268;-71
2022/01/17 03:43:17;;;;;;;7.20;6.70;;;15.90;65.00;;;;;;5088013;27;44118;-72
2022/01/17 03:45:46;;;;;;;7.37;6.87;;;16.00;65.30;;;;;;5088402;27;43423;-70
2022/01/17 03:48:14;;;;;;;7.07;6.60;;;16.10;65.10;;;;;;5087861;28;43931;-72
2022/01/17 03:50:42;;;;;;;7.07;6.57;;;16.20;64.60;;;;;;5087938;27;44016;-71
2022/01/17 03:53:10;;;;;;;7.23;6.73;;;16.30;64.20;;;;;;5087785;28;44025;-71
2022/01/17 03:55:38;;;;;;;6.87;6.47;;;16.40;63.80;;;;;;5086778;28;44035;-72
2022/01/17 03:58:06;;;;;;;7.20;6.80;;;16.50;63.50;;;;;;5087733;28;43874;-71
2022/01/17 04:00:37;;;;;;;6.60;6.20;;;16.40;63.40;;;;;;5086400;28;45504;-72
2022/01/17 04:03:05;;;;;;;6.53;6.13;;;16.30;63.60;;;;;;5087691;27;43918;-71
2022/01/17 04:05:33;;;;;;;7.50;7.00;;;16.30;63.90;;;;;;5088320;27;43752;-71
2022/01/17 04:08:01;;;;;;;7.23;6.73;;;16.20;64.10;;;;;;5086133;28;46893;-71
2022/01/17 04:10:29;;;;;;;6.37;6.00;;;16.10;64.30;;;;;;5087623;27;43986;-72
2022/01/17 04:13:01;;;;;;;7.47;6.93;;;16.10;64.50;;;;;;5087809;27;43969;-72
2022/01/17 04:15:29;;;;;;;6.40;6.10;;;16.00;64.70;;;;;;5088159;28;44016;-70
2022/01/17 04:17:59;;;;;;;6.83;6.43;;;16.00;64.90;;;;;;5096719;27;46858;-71
2022/01/17 04:20:28;;;;;;;7.57;7.07;;;15.90;65.00;;;;;;5081088;28;43990;-71
2022/01/17 04:22:57;;;;;;;6.10;5.80;;;15.90;65.00;;;;;;5087438;28;43954;-71
2022/01/17 04:25:26;;;;;;;6.93;6.53;;;15.90;65.30;;;;;;5086186;28;43945;-71
2022/01/17 04:27:54;;;;;;;7.07;6.57;;;15.90;65.30;;;;;;5087290;28;43767;-71
2022/01/17 04:30:22;;;;;;;6.43;6.13;;;16.00;64.90;;;;;;5086977;28;43911;-71
2022/01/17 04:32:49;;;;;;;6.47;6.07;;;16.10;64.60;;;;;;5087565;28;43859;-72
2022/01/17 04:35:21;;;;;;;6.57;6.17;;;16.10;64.60;;;;;;5087873;28;43902;-70
2022/01/17 04:37:50;;;;;;;6.73;6.33;;;16.10;64.70;;;;;;5085922;28;46021;-71
2022/01/17 04:40:18;;;;;;;6.77;6.37;;;16.00;64.70;;;;;;5087158;28;43909;-71
2022/01/17 04:42:48;;;;;;;7.63;6.93;;;16.00;64.90;;;;;;5087171;27;43991;-71
2022/01/17 04:45:16;;;;;;;6.27;5.83;;;16.00;65.00;;;;;;5087449;28;43807;-72
2022/01/17 04:47:46;;;;;;;7.30;6.60;;;16.00;65.10;;;;;;5085981;28;44080;-71
2022/01/17 04:50:15;;;;;;;7.37;6.67;;;15.90;65.10;;;;;;5086845;28;44058;-71
2022/01/17 04:52:44;;;;;;;9.00;7.60;;;15.90;65.20;;;;;;5087089;28;43944;-72
2022/01/17 04:55:14;;;;;;;10.50;7.77;;;15.90;65.20;;;;;;5087093;28;44046;-72
2022/01/17 04:57:42;;;;;;;11.10;7.53;;;15.90;65.30;;;;;;5086705;28;44937;-72
2022/01/17 05:00:12;;;;;;;10.60;7.47;;;15.90;65.40;;;;;;5086768;28;44080;-70
2022/01/17 05:02:40;;;;;;;9.60;7.03;;;15.90;65.40;;;;;;5086615;27;43974;-72
2022/01/17 05:05:08;;;;;;;10.63;8.07;;;15.90;65.40;;;;;;5087197;27;43407;-72
2022/01/17 05:07:36;;;;;;;12.70;8.27;;;15.90;65.50;;;;;;5085238;28;44111;-72
2022/01/17 05:10:07;;;;;;;12.47;8.27;;;15.90;65.30;;;;;;5085261;28;46259;-72
2022/01/17 05:12:38;;;;;;;13.47;8.30;;;16.10;64.90;;;;;;5085269;28;43987;-71
2022/01/17 05:15:10;;;;;;;15.10;8.37;;;16.30;64.50;;;;;;5085945;28;43932;-71
2022/01/17 05:17:44;;;;;;;11.57;7.83;;;16.30;64.00;;;;;;5086712;28;44050;-72
2022/01/17 05:20:12;;;;;;;13.60;7.83;;;16.30;63.70;;;;;;5085193;28;44552;-71
2022/01/17 05:22:41;;;;;;;10.80;7.70;;;16.30;63.90;;;;;;5086505;28;43982;-73
2022/01/17 05:25:12;;;;;;;11.13;7.73;;;16.20;64.10;;;;;;5087005;27;43941;-72
2022/01/17 05:27:40;;;;;;;12.50;7.13;;;16.20;64.40;;;;;;5086592;28;43771;-71
2022/01/17 05:30:10;;;;;;;13.07;8.43;;;16.10;64.50;;;;;;5085802;28;44127;-71
2022/01/17 05:32:38;;;;;;;12.50;7.90;;;16.10;64.70;;;;;;5086228;28;44032;-71
2022/01/17 05:35:06;;;;;;;11.37;7.90;;;16.00;64.80;;;;;;5086843;28;43830;-71
2022/01/17 05:37:34;;;;;;;13.27;7.90;;;15.90;64.90;;;;;;5084905;28;45925;-72
2022/01/17 05:40:02;;;;;;;8.97;7.97;;;15.90;65.00;;;;;;5086298;27;43913;-71
2022/01/17 05:42:31;;;;;;;12.23;8.60;;;15.90;65.20;;;;;;5086262;28;43914;-71
2022/01/17 05:44:59;;;;;;;12.63;7.20;;;15.90;65.30;;;;;;5085308;28;44297;-71
2022/01/17 05:47:27;;;;;;;10.23;8.00;;;15.90;65.40;;;;;;5086182;28;43927;-72
2022/01/17 05:49:55;;;;;;;12.07;8.27;;;15.90;65.50;;;;;;5086160;28;43858;-71
2022/01/17 05:52:23;;;;;;;11.77;7.93;;;16.00;65.10;;;;;;5086218;28;43922;-71
2022/01/17 05:54:52;;;;;;;10.00;7.27;;;16.10;64.80;;;;;;5085284;28;43971;-72
2022/01/17 05:57:20;;;;;;;7.27;6.57;;;16.10;64.70;;;;;;5086300;27;43983;-72
2022/01/17 05:59:49;;;;;;;9.57;8.07;;;16.10;64.80;;;;;;5088212;28;43958;-71
2022/01/17 06:02:17;;;;;;;15.87;8.17;;;16.00;64.80;;;;;;5089927;28;43533;-69
2022/01/17 06:04:46;;;;;;;11.87;7.50;;;16.00;65.00;;;;;;5083303;28;43949;-71
2022/01/17 06:07:13;;;;;;;13.53;7.97;;;16.00;65.50;;;;;;5089448;28;43925;-71
2022/01/17 06:09:41;;;;;;;16.43;8.03;;;16.00;65.60;;;;;;5089471;28;43947;-72
2022/01/17 06:12:10;;;;;;;14.83;8.03;;;16.00;65.80;;;;;;5089506;28;43412;-71
2022/01/17 06:14:39;;;;;;;15.33;8.13;;;15.90;65.70;;;;;;5083176;28;43871;-71
2022/01/17 06:17:08;;;;;;;15.67;8.20;;;16.00;65.80;;;;;;5089396;28;44950;-71
2022/01/17 06:19:36;;;;;;;16.37;8.57;;;16.00;65.70;;;;;;5089096;28;43873;-71
2022/01/17 06:22:07;;;;;;;18.33;8.77;;;15.90;65.60;;;;;;5089336;28;44104;-72
2022/01/17 06:24:35;;;;;;;21.37;8.83;;;15.90;65.60;;;;;;5089800;28;43938;-71
2022/01/17 06:27:03;;;;;;;22.43;9.13;;;15.90;65.60;;;;;;5087667;28;45796;-72
2022/01/17 06:29:31;;;;;;;25.00;8.87;;;15.90;65.60;;;;;;5088749;27;44046;-71
2022/01/17 06:31:59;;;;;;;20.97;9.60;;;15.90;65.50;;;;;;5088070;28;43893;-71
2022/01/17 06:34:48;;;;;;;37.50;10.60;;;16.10;65.30;;;;;;5089261;27;44011;-72
2022/01/17 06:37:16;;;;;;;29.60;9.70;;;16.20;64.60;;;;;;5088925;28;44862;-71
2022/01/17 06:39:45;;;;;;;25.33;10.87;;;16.40;64.10;;;;;;5087653;28;44296;-71
2022/01/17 06:42:13;;;;;;;23.80;10.70;;;16.40;63.70;;;;;;5089263;27;43964;-72
2022/01/17 06:44:41;;;;;;;26.73;10.17;;;16.40;63.70;;;;;;5089270;27;43421;-72
2022/01/17 06:47:09;;;;;;;23.50;9.80;;;16.30;63.80;;;;;;5088831;27;44641;-72
2022/01/17 06:49:37;;;;;;;24.43;8.70;;;16.30;64.10;;;;;;5088726;28;43939;-71
2022/01/17 06:52:07;;;;;;;18.80;9.03;;;16.20;65.20;;;;;;5089003;28;44047;-72
2022/01/17 06:54:34;;;;;;;17.03;9.33;;;16.10;65.00;;;;;;5089014;28;43946;-72
2022/01/17 06:57:03;;;;;;;19.03;9.20;;;16.00;65.50;;;;;;5087415;28;45624;-72
2022/01/17 06:59:33;;;;;;;15.23;9.13;;;16.00;66.20;;;;;;5088908;27;44060;-72
2022/01/17 07:02:01;;;;;;;15.53;9.50;;;15.90;66.30;;;;;;5088938;28;43985;-71
2022/01/17 07:04:29;;;;;;;14.63;9.17;;;15.90;66.20;;;;;;5088896;27;43961;-71
2022/01/17 07:06:57;;;;;;;15.13;8.07;;;15.90;66.10;;;;;;5087217;28;46146;-72
2022/01/17 07:09:26;;;;;;;19.50;8.73;;;15.90;65.80;;;;;;5087823;27;44035;-71
2022/01/17 07:11:58;;;;;;;18.37;9.57;;;15.90;65.60;;;;;;5088545;28;43966;-71
2022/01/17 07:14:26;;;;;;;17.23;9.40;;;16.00;65.20;;;;;;5087437;28;44205;-72
2022/01/17 07:16:54;;;;;;;20.40;9.23;;;16.10;64.60;;;;;;5088378;28;44057;-71
2022/01/17 07:19:23;;;;;;;11.53;8.27;;;16.10;64.30;;;;;;5086978;28;45803;-72
2022/01/17 07:21:51;;;;;;;13.53;9.13;;;16.10;64.50;;;;;;5088671;28;43495;-72
2022/01/17 07:24:39;;;;;;;14.20;8.97;;;16.10;64.70;;;;;;5088570;27;43996;-72
2022/01/17 07:27:07;;;;;;;13.00;8.73;;;16.10;64.70;;;;;;5086816;28;45461;-72
2022/01/17 07:29:35;;;;;;;13.20;8.13;;;16.10;64.80;;;;;;5087121;28;43386;-72
2022/01/17 07:32:03;;;;;;;13.63;8.77;;;16.10;64.80;;;;;;5086944;28;44004;-71
2022/01/17 07:34:31;;;;;;;13.10;8.83;;;16.00;64.90;;;;;;5088651;28;43939;-72
2022/01/17 07:36:59;;;;;;;11.87;8.60;;;16.00;64.80;;;;;;5088138;28;43968;-72
2022/01/17 07:39:27;;;;;;;12.03;8.53;;;16.00;64.90;;;;;;5087292;27;43961;-71
2022/01/17 07:41:57;;;;;;;10.20;8.30;;;16.00;65.00;;;;;;5088461;27;44012;-72
2022/01/17 07:44:29;;;;;;;11.67;7.77;;;16.00;65.00;;;;;;5087303;28;43966;-71
2022/01/17 07:46:59;;;;;;;12.40;7.90;;;16.00;65.10;;;;;;5086854;28;46044;-72
2022/01/17 07:49:27;;;;;;;11.80;8.67;;;15.90;65.00;;;;;;5088077;27;44003;-72
2022/01/17 07:51:59;;;;;;;10.77;7.80;;;15.90;65.00;;;;;;5087926;28;44004;-72
2022/01/17 07:54:29;;;;;;;11.10;8.03;;;16.00;64.90;;;;;;5088638;27;43915;-72
2022/01/17 07:56:59;;;;;;;11.03;8.30;;;16.10;64.40;;;;;;5088123;28;43955;-72
2022/01/17 07:59:27;;;;;;;8.63;7.83;;;16.30;64.00;;;;;;5087713;28;43956;-71
2022/01/17 08:01:54;;;;;;;11.07;7.90;;;16.50;63.40;;;;;;5088098;28;43952;-71
2022/01/17 08:04:23;;;;;;;8.30;7.37;;;16.50;62.90;;;;;;5088342;27;44053;-72
2022/01/17 08:06:51;;;;;;;10.10;7.60;;;16.50;62.80;;;;;;5087801;28;44038;-72
2022/01/17 08:09:20;;;;;;;9.77;7.37;;;16.40;63.10;;;;;;5087814;27;43875;-72
2022/01/17 08:12:09;;;;;;;9.00;7.60;;;16.30;63.50;;;;;;5086143;28;43407;-71
2022/01/17 08:14:37;;;;;;;8.17;7.37;;;16.20;63.80;;;;;;5081677;28;43970;-72
2022/01/17 08:17:05;;;;;;;8.50;7.60;;;16.10;64.00;;;;;;5081020;28;44016;-72
2022/01/17 08:19:33;;;;;;;8.10;7.40;;;16.10;64.30;;;;;;5086151;28;45096;-72
2022/01/17 08:22:01;;;;;;;8.77;7.30;;;16.00;64.40;;;;;;5081246;27;43427;-72
2022/01/17 08:24:29;;;;;;;9.07;8.10;;;16.00;64.50;;;;;;5081293;28;43741;-72
2022/01/17 08:26:57;;;;;;;8.37;7.57;;;15.90;64.40;;;;;;5086082;28;47332;-72
2022/01/17 08:29:27;;;;;;;8.50;7.60;;;15.90;64.60;;;;;;5065946;28;43379;-72
2022/01/17 08:52:48;;;;;;;7.57;6.87;;;16.10;64.00;;;;;;5066437;28;44152;-71
2022/01/17 08:55:16;;;;;;;13.77;8.77;;;16.10;64.10;;;;;;5085193;28;44831;-72
2022/01/17 08:57:45;;;;;;;8.30;7.50;;;16.00;64.20;;;;;;5068956;28;44015;-72
2022/01/17 09:00:17;;;;;;;8.27;7.47;;;16.00;64.70;;;;;;5069182;28;43419;-71
2022/01/17 09:03:03;;;;;;;8.10;7.37;;;16.00;64.50;;;;;;5086153;28;43903;-71
2022/01/17 09:05:33;;;;;;;8.33;7.63;;;16.00;64.80;;;;;;5078861;28;44046;-71
2022/01/17 09:08:04;;;;;;;9.20;8.37;;;16.00;65.00;;;;;;5078973;28;44130;-72
2022/01/17 09:10:32;;;;;;;8.07;7.37;;;16.00;65.10;;;;;;5062942;28;43476;-71
2022/01/17 09:13:00;;;;;;;8.70;7.90;;;16.00;65.10;;;;;;5068756;28;44088;-72
2022/01/17 09:15:29;;;;;;;8.87;8.07;;;16.00;64.80;;;;;;5051857;28;44117;-72
2022/01/17 09:17:58;;;;;;;9.20;8.20;;;16.00;64.60;;;;;;5068776;28;44388;-72
2022/01/17 09:20:26;;;;;;;9.70;8.07;;;16.20;64.20;;;;;;5085090;28;43961;-71
2022/01/17 09:22:54;;;;;;;8.80;7.83;;;16.30;63.90;;;;;;5085495;28;43581;-72
2022/01/17 09:25:24;;;;;;;8.53;7.77;;;16.50;63.30;;;;;;5068504;28;43973;-72
2022/01/17 09:27:52;;;;;;;11.83;9.03;;;16.50;63.20;;;;;;5068483;28;43900;-71
2022/01/17 09:30:21;;;;;;;9.23;8.33;;;16.40;63.60;;;;;;5068140;28;44027;-72
2022/01/17 09:32:49;;;;;;;8.47;7.60;;;16.40;64.30;;;;;;5069020;28;44244;-72
2022/01/17 09:35:17;;;;;;;8.83;8.00;;;16.30;64.50;;;;;;5072182;28;44010;-71
2022/01/17 09:37:45;;;;;;;8.87;8.10;;;16.30;65.40;;;;;;5072104;28;43389;-71
2022/01/17 09:40:14;;;;;;;8.67;7.80;;;16.20;65.60;;;;;;5071972;28;44048;-71
2022/01/17 09:42:43;;;;;;;9.80;8.83;;;16.10;65.70;;;;;;5072175;28;43894;-71
2022/01/17 09:45:13;;;;;;;8.90;8.00;;;16.10;65.90;;;;;;5071507;28;44041;-71
2022/01/17 09:47:41;;;;;;;9.07;8.27;;;16.10;65.90;;;;;;5088573;27;43665;-72
2022/01/17 09:50:11;;;;;;;8.77;8.03;;;16.10;66.00;;;;;;5055047;28;43998;-72
2022/01/17 09:52:41;;;;;;;8.73;7.83;;;16.10;66.10;;;;;;5088821;27;43585;-71
2022/01/17 09:55:11;;;;;;;9.13;7.87;;;16.10;65.30;;;;;;5089554;27;44052;-71
2022/01/17 09:57:40;;;;;;;8.80;7.90;;;16.10;65.20;;;;;;5071748;28;43866;-71
2022/01/17 10:00:11;;;;;;;9.03;7.80;;;16.20;64.70;;;;;;5071803;28;43962;-71
2022/01/17 10:02:42;;;;;;;8.77;7.80;;;16.30;65.30;;;;;;5087428;27;43972;-72
2022/01/17 10:05:12;;;;;;;8.13;7.47;;;16.30;65.30;;;;;;5071863;28;44761;-72
2022/01/17 10:07:56;;;;;;;8.17;7.30;;;16.30;65.80;;;;;;5071260;28;43741;-72
2022/01/17 10:10:35;;;;;;;8.90;8.10;;;16.30;66.30;;;;;;5088107;28;43846;-73
2022/01/17 10:13:08;;;;;;;8.33;7.40;;;16.20;66.60;;;;;;5071642;28;43436;-72
2022/01/17 10:15:49;;;;;;;8.53;7.63;;;16.20;66.90;;;;;;5071311;28;43817;-73
2022/01/17 10:18:45;;;;;;;8.97;8.07;;;16.20;67.10;;;;;;5085421;28;43454;-73
2022/01/17 10:21:20;;;;;;;8.00;7.30;;;16.20;67.20;;;;;;5056498;28;45073;-73
2022/01/17 10:24:13;;;;;;;7.83;7.33;;;16.20;67.10;;;;;;5072727;28;43996;-72
2022/01/17 10:35:15;;;;;;;11.23;7.97;;;16.10;66.70;;;;;;5073802;28;44034;-73
2022/01/17 10:37:55;;;;;;;8.00;7.40;;;16.00;66.10;;;;;;5087503;28;44377;-72
2022/01/17 10:40:23;;;;;;;7.67;7.17;;;16.10;65.70;;;;;;5088813;27;43852;-72
2022/01/17 10:42:54;;;;;;;8.00;7.23;;;16.20;64.90;;;;;;5071576;28;44054;-73
2022/01/17 10:45:24;;;;;;;8.33;7.43;;;16.40;64.30;;;;;;5086865;27;43976;-74
2022/01/17 10:47:55;;;;;;;7.47;6.97;;;16.50;64.00;;;;;;5070791;28;45099;-73
2022/01/17 10:50:24;;;;;;;7.10;6.60;;;16.50;64.20;;;;;;5070579;28;43901;-73
2022/01/17 10:52:53;;;;;;;7.00;6.47;;;16.50;64.80;;;;;;5071265;28;43470;-73
2022/01/17 10:55:24;;;;;;;7.23;6.63;;;16.40;65.10;;;;;;5087059;27;43959;-73
2022/01/17 10:57:54;;;;;;;6.97;6.53;;;16.30;65.10;;;;;;5070878;28;45084;-73
2022/01/17 11:00:23;;;;;;;7.53;6.83;;;16.30;65.40;;;;;;5070596;28;43778;-74
2022/01/17 11:02:53;;;;;;;6.57;6.10;;;16.30;66.30;;;;;;5071007;28;44009;-73
2022/01/17 11:05:22;;;;;;;8.33;6.90;;;16.20;65.80;;;;;;5071183;28;43873;-72
2022/01/17 11:07:52;;;;;;;6.63;6.13;;;16.20;65.60;;;;;;5070673;28;43885;-69
2022/01/17 11:10:22;;;;;;;8.30;6.97;;;16.10;65.50;;;;;;5087601;28;43425;-70
2022/01/17 11:12:51;;;;;;;6.70;6.27;;;16.10;65.70;;;;;;5070947;28;43962;-70
2022/01/17 11:15:19;;;;;;;6.83;6.17;;;16.10;65.80;;;;;;5089023;27;44013;-70
2022/01/17 11:17:50;;;;;;;6.57;6.20;;;16.10;65.20;;;;;;5088449;27;46273;-71
2022/01/17 11:20:21;;;;;;;6.20;5.73;;;16.10;64.90;;;;;;5064896;28;43968;-71
2022/01/17 11:22:50;;;;;;;7.07;6.50;;;16.10;64.60;;;;;;5051158;28;43986;-71
2022/01/17 11:25:20;;;;;;;5.77;5.47;;;16.20;64.40;;;;;;5087293;28;43959;-71
2022/01/17 11:27:48;;;;;;;6.40;5.90;;;16.20;64.40;;;;;;5087321;28;43972;-71
2022/01/17 11:30:17;;;;;;;5.40;5.20;;;16.20;64.40;;;;;;5069685;28;43938;-70
2022/01/17 11:32:45;;;;;;;6.23;5.63;;;16.20;64.50;;;;;;5086947;28;43351;-71
2022/01/17 11:35:14;;;;;;;5.60;5.30;;;16.20;64.50;;;;;;5070527;28;43907;-71
2022/01/17 11:37:44;;;;;;;5.67;5.33;;;16.10;64.40;;;;;;5053411;28;44387;-71
2022/01/17 11:40:13;;;;;;;5.40;5.20;;;16.10;64.50;;;;;;5069935;28;44212;-70
2022/01/17 11:42:42;;;;;;;6.37;5.77;;;16.10;64.60;;;;;;5070067;28;43913;-71
2022/01/17 11:45:44;;;;;;;5.97;5.67;;;16.10;64.70;;;;;;5070472;28;43988;-71
2022/01/17 11:48:21;;;;;;;5.50;5.20;;;16.00;64.50;;;;;;5012148;28;44290;-71
2022/01/17 11:50:51;;;;;;;5.20;4.90;;;16.10;64.70;;;;;;5012202;28;44093;-71
2022/01/17 11:53:51;;;;;;;5.43;5.13;;;16.00;64.60;;;;;;5058615;28;43515;-70
2022/01/17 11:56:42;;;;;;;5.03;4.73;;;16.00;64.70;;;;;;5086838;28;43949;-70
2022/01/17 11:59:37;;;;;;;5.30;5.00;;;16.00;64.70;;;;;;5069658;28;43964;-70
2022/01/17 12:02:29;;;;;;;4.70;4.50;;;16.00;64.40;;;;;;5053069;28;43448;-70
2022/01/17 12:05:32;;;;;;;4.67;4.47;;;16.10;64.10;;;;;;5082312;28;43992;-71
2022/01/17 12:08:01;;;;;;;4.93;4.63;;;16.30;63.60;;;;;;5080340;28;43992;-71
2022/01/17 12:10:39;;;;;;;4.47;4.30;;;16.40;63.10;;;;;;5080187;27;46779;-70
2022/01/17 12:13:35;;;;;;;5.40;4.97;;;16.50;62.80;;;;;;5086531;28;43998;-71
2022/01/17 12:16:11;;;;;;;4.93;4.70;;;16.50;63.00;;;;;;5086429;28;44021;-71
2022/01/17 12:18:40;;;;;;;4.90;4.70;;;16.40;63.10;;;;;;5064032;28;43579;-71
2022/01/17 12:21:32;;;;;;;4.57;4.37;;;16.30;63.30;;;;;;5079716;28;43987;-71
2022/01/17 12:24:37;;;;;;;4.33;4.20;;;16.20;63.50;;;;;;5086119;27;44018;-70
2022/01/17 12:27:27;;;;;;;4.33;4.13;;;16.10;63.70;;;;;;5044771;28;43969;-71
2022/01/17 12:29:57;;;;;;;4.17;4.07;;;16.10;63.90;;;;;;5044301;28;43871;-70
2022/01/17 12:32:49;;;;;;;4.60;4.40;;;16.10;64.10;;;;;;5047216;28;44111;-72
2022/01/17 12:35:45;;;;;;;4.20;4.00;;;16.00;64.80;;;;;;5085989;28;43921;-70
2022/01/17 12:38:16;;;;;;;4.43;4.33;;;16.00;65.00;;;;;;5085825;27;43892;-71
2022/01/17 12:41:00;;;;;;;4.53;4.33;;;16.00;64.20;;;;;;5086366;28;43913;-71
2022/01/17 12:43:31;;;;;;;4.37;4.17;;;16.00;64.20;;;;;;5052197;28;45448;-71
2022/01/17 12:46:01;;;;;;;4.27;4.10;;;16.10;64.10;;;;;;5085453;28;44099;-71
2022/01/17 12:48:30;;;;;;;4.50;4.30;;;16.20;63.70;;;;;;5069012;28;44064;-71
2022/01/17 12:50:59;;;;;;;4.00;3.90;;;16.20;63.70;;;;;;5069457;28;44405;-72
2022/01/17 12:53:28;;;;;;;4.63;4.43;;;16.20;63.70;;;;;;5052106;28;45118;-71
2022/01/17 12:55:58;;;;;;;4.43;4.23;;;16.10;63.80;;;;;;5068774;28;43410;-71
2022/01/17 12:58:28;;;;;;;4.00;3.90;;;16.10;63.90;;;;;;5068998;28;43419;-71
2022/01/17 13:00:58;;;;;;;4.07;3.90;;;16.10;64.10;;;;;;5069403;28;44202;-70
2022/01/17 13:03:29;;;;;;;4.10;4.00;;;16.00;64.30;;;;;;5086017;28;44090;-71
2022/01/17 13:05:59;;;;;;;4.23;4.03;;;16.00;64.20;;;;;;5069153;28;44675;-71
2022/01/17 13:08:27;;;;;;;3.53;3.43;;;16.00;64.40;;;;;;5084760;27;44375;-72
2022/01/17 13:10:56;;;;;;;3.87;3.67;;;15.90;64.30;;;;;;5085863;28;43914;-72
2022/01/17 13:13:24;;;;;;;4.10;3.90;;;15.90;64.40;;;;;;5068697;28;44008;-71
2022/01/17 13:15:54;;;;;;;3.97;3.87;;;15.90;64.40;;;;;;5068721;28;44028;-71
2022/01/17 13:18:24;;;;;;;3.53;3.40;;;15.90;64.50;;;;;;5068451;28;44015;-71
2022/01/17 13:20:52;;;;;;;5.10;4.23;;;15.90;64.50;;;;;;5069186;28;43945;-71
2022/01/17 13:23:29;;;;;;;4.47;4.27;;;15.90;64.50;;;;;;5068754;28;44103;-70
2022/01/17 13:25:57;;;;;;;3.90;3.80;;;16.00;64.40;;;;;;5069863;28;43977;-70
2022/01/17 13:28:26;;;;;;;4.00;3.80;;;16.10;63.90;;;;;;5068479;28;44005;-71
2022/01/17 13:30:54;;;;;;;3.87;3.70;;;16.30;63.60;;;;;;5068354;28;43971;-71
2022/01/17 13:33:23;;;;;;;3.77;3.67;;;16.40;63.00;;;;;;5068831;28;44969;-71
2022/01/17 13:35:54;;;;;;;3.40;3.30;;;16.50;62.70;;;;;;5068583;28;44112;-71
2022/01/17 13:38:22;;;;;;;4.00;3.80;;;16.40;62.60;;;;;;5078821;28;43376;-70